createdAt,value
2022-12-01T00:01:18.124Z,4.8
2022-12-01T00:11:20.385Z,4.7
2022-12-01T00:21:22.866Z,4.8
2022-12-01T00:31:25.419Z,4.7
2022-12-01T00:51:29.353Z,4.7
2022-12-01T01:11:33.641Z,4.7
2022-12-01T01:21:35.470Z,4.6
2022-12-01T01:31:37.828Z,4.6
2022-12-01T01:41:39.900Z,4.6
2022-12-01T01:51:41.967Z,4.6
2022-12-01T02:01:44.603Z,4.7
2022-12-01T02:11:46.751Z,4.7
2022-12-01T02:31:51.169Z,4.7
2022-12-01T02:41:53.608Z,4.7
2022-12-01T02:51:55.792Z,4.7
2022-12-01T03:01:58.317Z,4.7
2022-12-01T03:22:02.898Z,4.7
2022-12-01T03:32:04.748Z,4.8
2022-12-01T03:42:06.988Z,4.8
2022-12-01T03:52:09.298Z,4.7
2022-12-01T04:02:11.274Z,4.7
2022-12-01T04:32:17.831Z,4.8
2022-12-01T04:52:22.891Z,4.8
2022-12-01T05:02:24.924Z,4.8
2022-12-01T05:12:26.721Z,4.7
2022-12-01T05:22:57.133Z,4.6
2022-12-01T05:32:31.264Z,4.6
2022-12-01T06:02:38.302Z,4.5
2022-12-01T06:12:40.694Z,4.5
2022-12-01T06:22:42.777Z,4.4
2022-12-01T06:32:45.281Z,4.4
2022-12-01T06:52:49.764Z,4.5
2022-12-01T07:12:53.495Z,4.5
2022-12-01T07:22:55.732Z,4.5
2022-12-01T08:13:06.683Z,4.5
2022-12-01T08:23:08.573Z,4.4
2022-12-01T08:43:23.011Z,4.5
2022-12-01T08:53:14.923Z,4.5
2022-12-01T09:03:17.038Z,4.5
2022-12-01T09:13:19.468Z,4.4
2022-12-01T09:33:23.520Z,4.6
2022-12-01T09:43:25.436Z,4.6
2022-12-01T09:53:27.481Z,4.6
2022-12-01T10:23:34.009Z,4.7
2022-12-01T10:33:35.981Z,4.8
2022-12-01T10:43:38.367Z,4.8
2022-12-01T10:53:40.121Z,4.7
2022-12-01T11:03:42.224Z,4.8
2022-12-01T11:13:44.416Z,4.9
2022-12-01T11:23:46.446Z,4.9
2022-12-01T11:33:48.128Z,5
2022-12-01T11:43:56.798Z,5
2022-12-01T11:53:51.871Z,5.1
2022-12-01T12:13:55.393Z,5.1
2022-12-01T12:23:57.625Z,5.1
2022-12-01T12:44:01.760Z,4.9
2022-12-01T12:54:04.023Z,5
2022-12-01T13:04:06.383Z,5.2
2022-12-01T13:14:08.973Z,5.1
2022-12-01T13:24:10.988Z,5.1
2022-12-01T14:44:28.754Z,5
2022-12-01T14:54:31.254Z,4.8
2022-12-01T14:54:53.201Z,4.8
2022-12-01T15:04:40.527Z,4.8
2022-12-01T15:14:42.421Z,4.8
2022-12-01T15:24:44.052Z,4.7
2022-12-01T15:34:46.176Z,4.7
2022-12-01T16:04:52.409Z,4.5
2022-12-01T16:14:53.857Z,4.4
2022-12-01T16:24:56.150Z,4.3
2022-12-01T16:34:58.323Z,4.3
2022-12-01T16:45:00.684Z,4.2
2022-12-01T17:05:04.243Z,4
2022-12-01T17:25:08.268Z,3.7
2022-12-01T17:45:12.175Z,3.7
2022-12-01T18:25:20.263Z,3.7
2022-12-01T18:35:24.385Z,3.6
2022-12-01T18:55:26.907Z,3.6
2022-12-01T19:15:31.798Z,3.5
2022-12-01T19:25:34.044Z,3.6
2022-12-01T19:35:36.600Z,3.5
2022-12-01T19:55:40.220Z,3.5
2022-12-01T20:05:41.940Z,3.5
2022-12-01T20:15:44.060Z,3.5
2022-12-01T20:25:46.643Z,3.4
2022-12-01T20:35:48.549Z,3.4
2022-12-01T20:55:53.266Z,3.3
2022-12-01T21:05:55.094Z,3.2
2022-12-01T21:25:59.765Z,3.1
2022-12-01T21:36:01.906Z,2.9
2022-12-01T21:56:06.089Z,2.7
2022-12-01T22:06:28.624Z,2.7
2022-12-01T22:16:09.670Z,2.7
2022-12-01T22:26:11.708Z,2.6
2022-12-01T22:46:15.934Z,2.4
2022-12-01T22:56:18.183Z,2.2
2022-12-01T23:06:20.703Z,2.2
2022-12-01T23:16:23.237Z,2.2
2022-12-01T23:26:25.565Z,2.1
2022-12-01T23:36:27.369Z,2.2
2022-12-01T23:56:31.863Z,2.2
